createdAt,value
2019-02-14T00:01:02.546Z,36.07
2019-02-14T00:06:07.830Z,34.80
2019-02-14T00:11:13.301Z,37.60
2019-02-14T00:16:18.758Z,39.30
2019-02-14T00:21:23.790Z,39.23
2019-02-14T00:26:28.945Z,35.63
2019-02-14T00:31:33.993Z,35.13
2019-02-14T00:36:39.042Z,36.60
2019-02-14T00:41:44.304Z,37.27
2019-02-14T00:46:49.722Z,36.53
2019-02-14T00:51:54.747Z,38.73
2019-02-14T00:56:59.795Z,33.93
2019-02-14T01:02:05.870Z,36.30
2019-02-14T01:07:10.852Z,36.77
2019-02-14T01:12:16.091Z,37.13
2019-02-14T01:17:21.338Z,36.80
2019-02-14T01:22:26.375Z,33.97
2019-02-14T01:27:31.510Z,34.93
2019-02-14T01:32:36.513Z,40.17
2019-02-14T01:37:41.619Z,38.10
2019-02-14T01:42:46.938Z,38.17
2019-02-14T01:47:51.983Z,38.43
2019-02-14T01:52:57.103Z,37.83
2019-02-14T01:58:02.314Z,39.20
2019-02-14T02:03:07.440Z,37.77
2019-02-14T02:08:12.532Z,39.10
2019-02-14T02:13:17.756Z,36.70
2019-02-14T02:18:23.023Z,35.77
2019-02-14T02:23:28.097Z,36.70
2019-02-14T02:28:33.180Z,37.90
2019-02-14T02:33:38.233Z,37.03
2019-02-14T02:38:44.398Z,39.30
2019-02-14T02:43:49.479Z,37.00
2019-02-14T02:48:54.508Z,37.17
2019-02-14T02:54:00.038Z,40.93
2019-02-14T02:59:05.538Z,40.63
2019-02-14T03:04:10.616Z,40.90
2019-02-14T03:09:16.002Z,37.57
2019-02-14T03:14:21.000Z,38.07
2019-02-14T03:19:26.505Z,45.43
2019-02-14T03:24:31.497Z,46.17
2019-02-14T03:29:36.526Z,38.57
2019-02-14T03:34:41.600Z,45.00
2019-02-14T03:39:46.729Z,50.03
2019-02-14T03:44:51.686Z,46.30
2019-02-14T03:49:56.782Z,43.67
2019-02-14T03:55:01.853Z,41.80
2019-02-14T04:00:10.104Z,41.17
2019-02-14T04:05:15.486Z,38.30
2019-02-14T04:10:20.536Z,40.23
2019-02-14T04:15:25.536Z,40.73
2019-02-14T04:20:30.924Z,43.60
2019-02-14T04:25:36.054Z,41.87
2019-02-14T04:30:41.497Z,44.07
2019-02-14T04:35:47.721Z,43.80
2019-02-14T04:40:52.746Z,47.90
2019-02-14T04:45:57.864Z,46.90
2019-02-14T04:51:02.921Z,45.90
2019-02-14T04:56:08.072Z,44.03
2019-02-14T05:01:13.167Z,45.27
2019-02-14T05:06:18.171Z,45.47
2019-02-14T05:11:23.224Z,45.27
2019-02-14T05:16:28.290Z,45.83
2019-02-14T05:21:33.410Z,48.17
2019-02-14T05:26:38.482Z,48.40
2019-02-14T05:31:43.516Z,50.67
2019-02-14T05:36:53.694Z,47.97
2019-02-14T05:42:05.122Z,49.60
2019-02-14T05:47:10.466Z,45.00
2019-02-14T05:52:15.526Z,47.40
2019-02-14T05:57:20.568Z,48.23
2019-02-14T06:02:25.668Z,46.33
2019-02-14T06:07:30.838Z,47.47
2019-02-14T06:12:35.991Z,46.67
2019-02-14T06:17:41.575Z,46.07
2019-02-14T06:22:47.762Z,48.20
2019-02-14T06:27:52.977Z,46.90
2019-02-14T06:32:59.021Z,41.53
2019-02-14T06:38:04.060Z,44.23
2019-02-14T06:43:09.084Z,46.70
2019-02-14T06:48:15.127Z,39.00
2019-02-14T06:53:20.250Z,35.27
2019-02-14T06:58:26.668Z,35.63
2019-02-14T07:03:32.108Z,37.50
2019-02-14T07:08:37.354Z,35.93
2019-02-14T07:13:45.111Z,39.20
2019-02-14T07:18:50.811Z,39.07
2019-02-14T07:23:57.184Z,30.20
2019-02-14T07:29:02.574Z,39.90
2019-02-14T07:34:10.003Z,38.73
2019-02-14T07:39:15.258Z,33.30
2019-02-14T07:44:20.374Z,36.57
2019-02-14T07:49:25.676Z,37.47
2019-02-14T07:54:30.941Z,36.20
2019-02-14T07:59:36.182Z,36.23
2019-02-14T08:04:41.314Z,40.23
2019-02-14T08:09:46.506Z,38.57
2019-02-14T08:14:51.913Z,37.20
2019-02-14T08:19:57.250Z,36.07
2019-02-14T08:25:02.577Z,36.57
2019-02-14T08:30:09.582Z,42.47
2019-02-14T08:35:14.909Z,34.80
2019-02-14T08:40:23.276Z,31.17
2019-02-14T08:45:28.427Z,29.90
2019-02-14T08:50:33.750Z,38.33
2019-02-14T08:55:39.326Z,34.17
2019-02-14T09:00:44.872Z,32.80
2019-02-14T09:05:50.255Z,34.10
2019-02-14T09:10:55.524Z,30.10
2019-02-14T09:16:00.929Z,29.53
2019-02-14T09:21:06.210Z,31.87
2019-02-14T09:26:11.816Z,33.77
2019-02-14T09:31:17.178Z,31.07
2019-02-14T09:36:22.476Z,29.73
2019-02-14T09:41:27.792Z,33.20
2019-02-14T09:46:32.934Z,30.47
2019-02-14T09:51:38.105Z,24.73
2019-02-14T09:56:43.247Z,25.87
2019-02-14T10:01:48.423Z,28.50
2019-02-14T10:06:53.969Z,27.93
2019-02-14T10:11:59.348Z,26.67
2019-02-14T10:17:05.512Z,23.10
2019-02-14T10:22:10.750Z,22.43
2019-02-14T10:27:15.947Z,21.30
2019-02-14T10:32:21.108Z,19.35
2019-02-14T10:37:26.271Z,18.90
2019-02-14T10:42:31.527Z,17.35
2019-02-14T10:47:36.567Z,17.77
2019-02-14T10:52:41.673Z,18.23
2019-02-14T10:57:46.923Z,19.07
2019-02-14T11:02:53.071Z,19.17
2019-02-14T11:07:58.232Z,18.62
2019-02-14T11:13:03.473Z,17.82
2019-02-14T11:18:08.943Z,18.52
2019-02-14T11:23:14.121Z,28.98
2019-02-14T11:28:19.364Z,20.15
2019-02-14T11:33:24.666Z,19.65
2019-02-14T11:38:29.879Z,18.77
2019-02-14T11:43:34.943Z,18.77
2019-02-14T11:48:39.978Z,22.98
2019-02-14T11:53:45.164Z,27.93
2019-02-14T11:58:50.674Z,22.40
2019-02-14T12:03:55.800Z,21.00
2019-02-14T12:09:05.010Z,19.07
2019-02-14T12:14:11.440Z,18.62
2019-02-14T12:19:17.025Z,18.40
2019-02-14T12:24:23.899Z,19.10
2019-02-14T12:29:32.444Z,16.60
2019-02-14T12:34:37.956Z,17.62
2019-02-14T12:39:43.104Z,18.37
2019-02-14T14:21:47.358Z,18.87
2019-02-14T14:57:25.090Z,20.77
2019-02-14T15:02:30.186Z,20.25
2019-02-14T15:07:36.189Z,20.15
2019-02-14T15:12:41.599Z,21.10
2019-02-14T15:17:47.050Z,26.80
2019-02-14T15:22:52.178Z,21.83
2019-02-14T15:27:57.364Z,20.97
2019-02-14T15:33:02.641Z,20.97
2019-02-14T15:38:09.850Z,22.53
2019-02-14T15:43:14.745Z,21.87
2019-02-14T15:48:19.847Z,23.40
2019-02-14T15:53:25.367Z,26.53
2019-02-14T15:58:32.914Z,22.50
2019-02-14T16:03:38.540Z,25.30
2019-02-14T16:08:46.711Z,29.10
2019-02-14T16:13:52.827Z,27.67
2019-02-14T16:18:58.596Z,30.10
2019-02-14T16:24:04.032Z,28.93
2019-02-14T16:29:09.233Z,30.47
2019-02-14T16:34:15.446Z,28.57
2019-02-14T16:39:22.954Z,24.43
2019-02-14T16:44:27.894Z,25.37
2019-02-14T16:49:33.028Z,26.10
2019-02-14T16:54:38.654Z,27.37
2019-02-14T16:59:43.923Z,27.77
2019-02-14T17:04:49.408Z,23.33
2019-02-14T17:09:55.054Z,26.10
2019-02-14T17:15:00.187Z,27.40
2019-02-14T17:20:07.268Z,23.10
2019-02-14T17:25:13.107Z,23.03
2019-02-14T17:30:18.623Z,25.80
2019-02-14T17:35:23.656Z,22.07
2019-02-14T17:40:28.760Z,20.20
2019-02-14T17:45:33.893Z,21.07
2019-02-14T17:50:39.324Z,22.03
2019-02-14T17:55:46.428Z,24.70
2019-02-14T18:00:51.791Z,26.90
2019-02-14T18:05:57.222Z,23.57
2019-02-14T18:11:02.271Z,23.17
2019-02-14T18:16:08.518Z,23.60
2019-02-14T18:21:15.330Z,23.17
2019-02-14T18:26:20.717Z,24.60
2019-02-14T18:31:26.216Z,24.93
2019-02-14T18:36:31.395Z,27.17
2019-02-14T18:41:36.480Z,26.87
2019-02-14T18:46:41.895Z,27.40
2019-02-14T18:51:47.059Z,31.37
2019-02-14T18:56:52.343Z,28.43
2019-02-14T19:01:57.426Z,22.40
2019-02-14T19:07:02.568Z,24.93
2019-02-14T19:12:09.063Z,25.43
2019-02-14T19:17:14.255Z,27.30
2019-02-14T19:22:19.928Z,29.97
2019-02-14T19:27:25.416Z,28.70
2019-02-14T19:32:31.588Z,26.40
2019-02-14T19:37:36.812Z,29.60
2019-02-14T19:42:42.395Z,27.30
2019-02-14T19:47:47.854Z,30.43
2019-02-14T19:52:53.367Z,27.70
2019-02-14T19:57:59.447Z,27.13
2019-02-14T20:03:06.075Z,25.43
2019-02-14T20:08:16.557Z,28.73
2019-02-14T20:13:22.074Z,35.90
2019-02-14T20:18:31.632Z,25.10
2019-02-14T20:23:38.371Z,26.23
2019-02-14T20:28:44.722Z,25.87
2019-02-14T20:33:52.934Z,25.90
2019-02-14T20:38:58.712Z,28.63
2019-02-14T20:44:04.271Z,27.30
2019-02-14T20:49:12.158Z,29.17
2019-02-14T20:54:20.471Z,32.93
2019-02-14T20:59:34.493Z,28.33
2019-02-14T21:04:41.094Z,29.63
2019-02-14T21:09:49.791Z,28.57
2019-02-14T21:14:56.192Z,27.03
2019-02-14T21:20:05.746Z,28.10
2019-02-14T21:25:22.468Z,27.20
2019-02-14T21:30:42.910Z,32.57
2019-02-14T21:35:59.675Z,35.83
2019-02-14T21:41:05.876Z,32.80
2019-02-14T21:46:12.291Z,32.90
2019-02-14T21:51:26.735Z,39.13
2019-02-14T21:56:33.218Z,38.30
2019-02-14T22:01:40.015Z,37.87
2019-02-14T22:06:49.045Z,37.00
2019-02-14T22:11:58.154Z,32.83
2019-02-14T22:17:09.279Z,33.67
2019-02-14T22:22:15.468Z,39.53
2019-02-14T22:27:21.707Z,41.77
2019-02-14T22:32:28.912Z,42.37
2019-02-14T22:37:34.869Z,32.13
2019-02-14T22:42:47.401Z,33.07
2019-02-14T22:47:51.686Z,33.50
2019-02-14T22:52:59.877Z,37.50
2019-02-14T22:58:08.966Z,39.27
2019-02-14T23:03:18.303Z,41.83
2019-02-14T23:08:32.801Z,36.37
2019-02-14T23:13:38.661Z,35.33
2019-02-14T23:18:47.339Z,36.57
2019-02-14T23:23:55.846Z,37.77
2019-02-14T23:29:02.331Z,37.13
2019-02-14T23:34:10.698Z,37.03
2019-02-14T23:39:24.220Z,40.60
2019-02-14T23:44:32.349Z,33.67
2019-02-14T23:49:41.650Z,36.77
2019-02-14T23:55:11.849Z,31.27
